Time;durP1;ratioP1;P1;durP2;ratioP2;P2;SDS_P1;SDS_P2;PMS_P1;PMS_P2;Temp;Humidity;BMP_temperature;BMP_pressure;BME280_temperature;BME280_humidity;BME280_pressure;Samples;Min_cycle;Max_cycle;Signal;HPM_P1;HPM_P2
2022/08/27 00:02:09;;;;;;;10.10;9.80;;;18.40;99.90;;;;;;5163450;27;20224;-84
2022/08/27 00:07:28;;;;;;;10.27;9.98;;;18.30;99.90;;;;;;5161038;27;20306;-84
2022/08/27 00:10:06;;;;;;;10.13;9.82;;;18.30;99.90;;;;;;5161817;27;20243;-84
2022/08/27 00:12:59;;;;;;;10.32;10.02;;;18.20;99.90;;;;;;5181784;22;20292;-84
2022/08/27 00:18:14;;;;;;;10.27;9.98;;;18.20;99.90;;;;;;5098807;28;20247;-84
2022/08/27 00:20:45;;;;;;;10.25;9.95;;;18.20;99.90;;;;;;5099596;28;20214;-84
2022/08/27 00:23:25;;;;;;;9.98;9.68;;;18.20;99.90;;;;;;5099540;28;20234;-83
2022/08/27 00:26:11;;;;;;;10.20;9.90;;;18.20;99.90;;;;;;5101761;28;20237;-84
2022/08/27 00:28:49;;;;;;;10.10;9.80;;;18.30;99.90;;;;;;5110461;28;20244;-84
2022/08/27 00:31:44;;;;;;;10.07;9.77;;;18.30;99.90;;;;;;5109886;28;20232;-83
2022/08/27 00:34:42;;;;;;;10.32;10.02;;;18.30;99.90;;;;;;5116171;27;20236;-82
2022/08/27 00:37:12;;;;;;;10.05;9.75;;;18.30;99.90;;;;;;5101843;27;20245;-84
2022/08/27 00:39:42;;;;;;;10.20;9.90;;;18.30;99.90;;;;;;5096972;28;20256;-84
2022/08/27 00:45:16;;;;;;;10.13;9.82;;;18.40;99.90;;;;;;5094547;28;20264;-83
2022/08/27 00:48:03;;;;;;;10.18;9.88;;;18.40;99.90;;;;;;5100980;28;20238;-83
2022/08/27 00:50:52;;;;;;;10.48;10.18;;;18.40;99.90;;;;;;5100502;28;20245;-84
2022/08/27 00:53:28;;;;;;;10.10;9.80;;;18.30;99.90;;;;;;5101585;28;20225;-84
2022/08/27 00:59:03;;;;;;;10.35;10.05;;;18.30;99.90;;;;;;5081391;28;20218;-83
2022/08/27 01:02:17;;;;;;;10.20;9.90;;;18.30;99.90;;;;;;5082942;28;21020;-84
2022/08/27 01:04:34;;;;;;;10.40;10.10;;;18.30;99.90;;;;;;5082497;28;20230;-85
2022/08/27 01:07:22;;;;;;;10.50;10.20;;;18.30;99.90;;;;;;5083442;28;20297;-85
2022/08/27 01:10:00;;;;;;;10.27;9.98;;;18.30;99.90;;;;;;5083340;28;20237;-84
2022/08/27 01:12:31;;;;;;;10.10;9.80;;;18.30;99.90;;;;;;5083161;28;20261;-84
2022/08/27 01:15:18;;;;;;;10.20;9.90;;;18.30;99.90;;;;;;5082087;28;20650;-84
2022/08/27 01:18:12;;;;;;;10.35;10.05;;;18.30;99.90;;;;;;5082709;28;20234;-84
2022/08/27 01:21:13;;;;;;;10.20;9.90;;;18.30;99.90;;;;;;5083225;28;20230;-85
2022/08/27 01:24:04;;;;;;;10.30;10.00;;;18.30;99.90;;;;;;5088254;28;20269;-85
2022/08/27 01:26:50;;;;;;;10.18;9.88;;;18.30;99.90;;;;;;5088358;28;20223;-85
2022/08/27 01:29:31;;;;;;;10.35;10.05;;;18.40;99.90;;;;;;5086739;28;20263;-85
2022/08/27 01:49:33;;;;;;;10.35;10.05;;;18.30;99.90;;;;;;5082627;28;20230;-85
2022/08/27 01:52:20;;;;;;;10.20;9.90;;;18.20;99.90;;;;;;5083335;28;20226;-84
2022/08/27 01:57:36;;;;;;;10.32;10.02;;;18.20;99.90;;;;;;5082852;28;20225;-85
2022/08/27 02:03:38;;;;;;;10.20;9.90;;;18.20;99.90;;;;;;5078502;28;20229;-84
2022/08/27 02:06:14;;;;;;;10.30;10.00;;;18.20;99.90;;;;;;5082114;28;20260;-85
2022/08/27 02:08:45;;;;;;;10.10;9.80;;;18.20;99.90;;;;;;5081561;28;20236;-84
2022/08/27 02:11:23;;;;;;;10.18;9.88;;;18.20;99.90;;;;;;5082783;28;20214;-85
2022/08/27 02:13:56;;;;;;;10.20;9.90;;;18.20;99.90;;;;;;5082473;28;20246;-85
2022/08/27 02:16:32;;;;;;;10.20;9.90;;;18.20;99.90;;;;;;5082934;28;20257;-85
2022/08/27 02:21:59;;;;;;;10.05;9.75;;;18.20;99.90;;;;;;5080588;28;20215;-84
2022/08/27 02:24:27;;;;;;;10.02;9.73;;;18.20;99.90;;;;;;5082353;28;20234;-85
2022/08/27 02:27:14;;;;;;;10.13;9.82;;;18.20;99.90;;;;;;5083077;28;20264;-85
2022/08/27 02:30:09;;;;;;;9.90;9.60;;;18.20;99.90;;;;;;5082834;28;20230;-86
2022/08/27 02:32:59;;;;;;;9.93;9.63;;;18.30;99.90;;;;;;5082758;28;20296;-85
2022/08/27 02:35:39;;;;;;;10.20;9.90;;;18.20;99.90;;;;;;5082265;28;20257;-85
2022/08/27 02:38:15;;;;;;;9.73;9.43;;;18.20;99.90;;;;;;5082296;28;20230;-85
2022/08/27 02:40:45;;;;;;;9.90;9.60;;;18.20;99.90;;;;;;5082379;28;20276;-85
2022/08/27 02:43:16;;;;;;;9.65;9.35;;;18.30;99.90;;;;;;5081431;28;20226;-85
2022/08/27 02:48:51;;;;;;;10.20;9.90;;;18.30;99.90;;;;;;5081944;28;20226;-85
2022/08/27 02:51:25;;;;;;;9.98;9.68;;;18.30;99.90;;;;;;5082258;28;20813;-85
2022/08/27 02:54:02;;;;;;;9.95;9.65;;;18.30;99.90;;;;;;5082309;28;20289;-85
2022/08/27 02:59:20;;;;;;;10.18;9.88;;;18.30;99.90;;;;;;5079797;28;20221;-85
2022/08/27 03:02:17;;;;;;;9.93;9.63;;;18.40;99.90;;;;;;5082435;28;20265;-84
2022/08/27 03:07:36;;;;;;;10.00;9.70;;;18.30;99.90;;;;;;5081307;28;20222;-85
2022/08/27 03:10:38;;;;;;;10.05;9.75;;;18.30;99.90;;;;;;5082787;28;20744;-85
2022/08/27 03:13:24;;;;;;;10.02;9.73;;;18.30;99.90;;;;;;5081345;28;20299;-85
2022/08/27 03:16:01;;;;;;;10.20;9.90;;;18.30;99.90;;;;;;5081619;28;20221;-84
2022/08/27 03:19:03;;;;;;;10.00;9.70;;;18.30;99.90;;;;;;5082286;28;20241;-85
2022/08/27 03:22:01;;;;;;;9.98;9.68;;;18.30;99.90;;;;;;5081569;28;20226;-85
2022/08/27 03:34:06;;;;;;;10.07;9.77;;;18.30;99.90;;;;;;5076531;28;20222;-84
2022/08/27 03:36:53;;;;;;;9.90;9.60;;;18.30;99.90;;;;;;5081516;28;20234;-85
2022/08/27 03:39:44;;;;;;;9.93;9.63;;;18.30;99.90;;;;;;5087938;28;20261;-84
2022/08/27 03:45:34;;;;;;;9.98;9.68;;;18.20;99.90;;;;;;5084331;28;20329;-85
2022/08/27 03:51:15;;;;;;;9.80;9.50;;;18.10;99.90;;;;;;5080801;28;20214;-85
2022/08/27 03:53:49;;;;;;;9.90;9.60;;;18.10;99.90;;;;;;5082224;28;20237;-84
2022/08/27 04:02:19;;;;;;;10.02;9.73;;;18.20;99.90;;;;;;5081688;28;20229;-85
2022/08/27 04:05:07;;;;;;;10.20;9.90;;;18.10;99.90;;;;;;5082161;28;20312;-85
2022/08/27 04:07:51;;;;;;;10.25;9.95;;;18.10;99.90;;;;;;5081123;28;20241;-85
2022/08/27 04:10:23;;;;;;;10.30;10.00;;;18.10;99.90;;;;;;5081557;28;20234;-84
2022/08/27 04:13:14;;;;;;;10.20;9.90;;;18.10;99.90;;;;;;5080900;28;20248;-85
2022/08/27 04:15:51;;;;;;;10.20;9.90;;;18.20;99.90;;;;;;5081885;28;20222;-84
2022/08/27 04:18:25;;;;;;;10.30;10.00;;;18.20;99.90;;;;;;5081472;28;20234;-85
2022/08/27 04:20:59;;;;;;;10.10;9.80;;;18.20;99.90;;;;;;5081369;28;20234;-85
2022/08/27 04:23:37;;;;;;;10.20;9.90;;;18.20;99.90;;;;;;5081428;28;20325;-85
2022/08/27 04:26:30;;;;;;;10.30;10.00;;;18.20;99.90;;;;;;5080485;28;20295;-85
2022/08/27 04:29:01;;;;;;;10.40;10.10;;;18.20;99.90;;;;;;5080838;28;20238;-85
2022/08/27 04:37:13;;;;;;;10.30;10.00;;;18.30;99.90;;;;;;5081336;28;20210;-85
2022/08/27 04:39:51;;;;;;;10.10;9.80;;;18.30;99.90;;;;;;5083718;28;20230;-85
2022/08/27 04:42:30;;;;;;;10.25;9.95;;;18.40;99.90;;;;;;5083809;28;20281;-85
2022/08/27 04:45:18;;;;;;;10.00;9.70;;;18.40;99.90;;;;;;5083539;28;20237;-85
2022/08/27 04:48:02;;;;;;;9.93;9.63;;;18.40;99.90;;;;;;5083680;28;20230;-85
2022/08/27 04:50:52;;;;;;;9.93;9.63;;;18.40;99.90;;;;;;5083157;28;20237;-85
2022/08/27 04:53:32;;;;;;;9.73;9.43;;;18.30;99.90;;;;;;5082175;28;20299;-85
2022/08/27 04:56:16;;;;;;;9.77;9.48;;;18.30;99.90;;;;;;5082451;28;20290;-85
2022/08/27 04:58:54;;;;;;;9.80;9.50;;;18.30;99.90;;;;;;5082919;28;20241;-85
2022/08/27 05:01:34;;;;;;;10.02;9.73;;;18.30;99.90;;;;;;5084625;28;20238;-85
2022/08/27 05:04:12;;;;;;;9.85;9.55;;;18.30;99.90;;;;;;5083965;28;20240;-85
2022/08/27 05:06:51;;;;;;;9.95;9.65;;;18.30;99.90;;;;;;5082985;28;20230;-85
2022/08/27 05:09:46;;;;;;;10.00;9.70;;;18.30;99.90;;;;;;5082901;28;20230;-85
2022/08/27 05:14:58;;;;;;;9.80;9.50;;;18.30;99.90;;;;;;5174089;22;20240;-82
2022/08/27 05:17:39;;;;;;;9.90;9.60;;;18.40;99.90;;;;;;5128251;28;20235;-82
2022/08/27 05:20:09;;;;;;;9.77;9.48;;;18.40;99.90;;;;;;5127126;27;20292;-83
2022/08/27 05:22:38;;;;;;;9.63;9.32;;;18.40;99.90;;;;;;5127603;27;20225;-82
2022/08/27 05:25:10;;;;;;;9.60;9.30;;;18.40;99.90;;;;;;5126404;28;20220;-83
2022/08/27 05:27:37;;;;;;;9.40;9.10;;;18.40;99.90;;;;;;5125620;28;20229;-83
2022/08/27 05:30:06;;;;;;;9.65;9.35;;;18.40;99.90;;;;;;5125721;28;20239;-83
2022/08/27 05:32:38;;;;;;;9.57;9.27;;;18.40;99.90;;;;;;5125716;28;20268;-82
2022/08/27 05:35:08;;;;;;;9.52;9.23;;;18.40;99.90;;;;;;5124478;27;20297;-83
2022/08/27 05:37:35;;;;;;;9.52;9.23;;;18.40;99.90;;;;;;5124558;28;20311;-82
2022/08/27 05:40:04;;;;;;;9.60;9.30;;;18.50;99.90;;;;;;5125047;27;20232;-82
2022/08/27 05:42:33;;;;;;;9.43;9.13;;;18.50;99.90;;;;;;5124054;28;20286;-83
2022/08/27 05:45:02;;;;;;;9.48;9.18;;;18.50;99.90;;;;;;5123835;28;20232;-83
2022/08/27 05:47:31;;;;;;;9.60;9.30;;;18.60;99.90;;;;;;5123815;28;20283;-83
2022/08/27 05:50:10;;;;;;;9.57;9.27;;;18.60;99.90;;;;;;5124079;27;20256;-82
2022/08/27 05:52:40;;;;;;;9.40;9.10;;;18.70;99.90;;;;;;5124130;28;20684;-83
2022/08/27 05:55:08;;;;;;;9.50;9.20;;;18.70;99.90;;;;;;5123773;28;20247;-83
2022/08/27 05:57:38;;;;;;;9.40;9.10;;;18.80;99.90;;;;;;5124241;28;20301;-83
2022/08/27 06:02:54;;;;;;;9.38;9.07;;;18.90;99.90;;;;;;5123462;27;20212;-83
2022/08/27 06:05:34;;;;;;;9.27;8.98;;;18.90;99.90;;;;;;5123360;27;20235;-83
2022/08/27 06:08:02;;;;;;;9.20;8.90;;;19.00;99.90;;;;;;5123365;28;20327;-83
2022/08/27 06:10:32;;;;;;;9.40;9.10;;;19.00;99.90;;;;;;5123877;27;20296;-83
2022/08/27 06:13:02;;;;;;;9.48;9.18;;;19.00;99.90;;;;;;5122452;28;20237;-83
2022/08/27 06:15:31;;;;;;;9.48;9.18;;;19.00;99.90;;;;;;5121956;27;20229;-83
2022/08/27 06:18:00;;;;;;;9.40;9.10;;;19.00;99.90;;;;;;5123653;27;20217;-83
2022/08/27 06:20:32;;;;;;;9.00;8.70;;;19.00;99.90;;;;;;5123334;28;20229;-84
2022/08/27 06:23:00;;;;;;;9.15;8.85;;;19.00;99.90;;;;;;5122709;28;20272;-83
2022/08/27 06:25:31;;;;;;;9.10;8.80;;;19.00;99.90;;;;;;5122758;27;20294;-84
2022/08/27 06:28:00;;;;;;;9.00;8.70;;;19.00;99.90;;;;;;5122357;28;20224;-83
2022/08/27 06:30:28;;;;;;;9.10;8.80;;;19.00;99.90;;;;;;5123631;27;20229;-83
2022/08/27 06:32:57;;;;;;;9.20;8.90;;;19.00;99.90;;;;;;5123243;28;20224;-83
2022/08/27 06:35:29;;;;;;;9.23;8.93;;;19.00;99.90;;;;;;5122419;27;20236;-84
2022/08/27 06:38:00;;;;;;;9.10;8.80;;;18.90;99.90;;;;;;5123354;28;20350;-83
2022/08/27 06:40:28;;;;;;;9.00;8.70;;;18.80;99.90;;;;;;5104923;28;20296;-82
2022/08/27 06:42:57;;;;;;;9.32;9.02;;;18.90;99.90;;;;;;5123021;28;20229;-83
2022/08/27 06:45:26;;;;;;;9.50;9.20;;;18.90;99.90;;;;;;5122642;28;20328;-84
2022/08/27 06:47:55;;;;;;;9.70;9.40;;;18.90;99.90;;;;;;5122694;28;20312;-83
2022/08/27 06:50:25;;;;;;;9.40;9.10;;;18.90;99.90;;;;;;5122652;27;20239;-83
2022/08/27 06:52:54;;;;;;;9.25;8.95;;;19.00;99.90;;;;;;5122717;27;20276;-83
2022/08/27 06:58:10;;;;;;;9.57;9.27;;;19.10;99.90;;;;;;5120583;28;20255;-83
2022/08/27 07:00:40;;;;;;;9.50;9.20;;;19.10;99.90;;;;;;5123734;28;20285;-82
2022/08/27 07:03:09;;;;;;;9.25;8.95;;;19.00;99.90;;;;;;5123277;28;20237;-82
2022/08/27 07:05:40;;;;;;;9.60;9.30;;;19.00;99.90;;;;;;5123339;28;20232;-83
2022/08/27 07:08:09;;;;;;;9.63;9.32;;;19.10;99.90;;;;;;5123618;28;20233;-82
2022/08/27 07:10:40;;;;;;;9.70;9.40;;;19.20;99.90;;;;;;5123214;27;20233;-83
2022/08/27 07:13:08;;;;;;;9.27;8.98;;;19.30;99.90;;;;;;5123533;27;20229;-83
2022/08/27 07:15:40;;;;;;;9.45;9.15;;;19.30;99.90;;;;;;5122105;27;20225;-83
2022/08/27 07:18:08;;;;;;;9.20;8.90;;;19.50;99.90;;;;;;5122625;27;20233;-83
2022/08/27 07:20:36;;;;;;;9.32;9.02;;;19.40;99.90;;;;;;5124962;28;20252;-83
2022/08/27 07:23:05;;;;;;;9.20;8.90;;;19.50;99.90;;;;;;5125816;28;20327;-84
2022/08/27 07:25:34;;;;;;;9.40;9.10;;;19.60;99.90;;;;;;5124385;28;20278;-83
2022/08/27 07:28:13;;;;;;;9.30;9.00;;;19.60;99.90;;;;;;5123883;28;20252;-83
2022/08/27 07:30:43;;;;;;;8.88;8.57;;;19.70;99.90;;;;;;5124675;27;20233;-81
2022/08/27 07:33:12;;;;;;;8.95;8.65;;;19.70;99.90;;;;;;5123340;28;20244;-83
2022/08/27 07:35:43;;;;;;;9.07;8.77;;;19.60;99.90;;;;;;5123296;28;20259;-82
2022/08/27 07:38:11;;;;;;;9.30;9.00;;;19.70;99.90;;;;;;5124504;27;20282;-83
2022/08/27 07:40:40;;;;;;;9.15;8.85;;;19.80;99.90;;;;;;5124437;28;20232;-83
2022/08/27 07:46:06;;;;;;;8.70;8.50;;;20.00;99.90;;;;;;5136812;28;20209;-83
2022/08/27 07:48:34;;;;;;;8.60;8.40;;;20.10;99.90;;;;;;5140016;28;20212;-82
2022/08/27 07:51:04;;;;;;;8.60;8.40;;;20.20;99.90;;;;;;5140056;27;20278;-83
2022/08/27 07:53:33;;;;;;;8.70;8.50;;;20.20;99.90;;;;;;5139872;27;20263;-83
2022/08/27 07:56:04;;;;;;;8.80;8.57;;;20.30;99.90;;;;;;5139606;27;20221;-83
2022/08/27 07:58:35;;;;;;;8.65;8.45;;;20.30;99.90;;;;;;5139437;27;20243;-83
2022/08/27 08:01:03;;;;;;;9.00;8.70;;;20.40;99.90;;;;;;5140207;27;20288;-83
2022/08/27 08:03:31;;;;;;;8.88;8.60;;;20.40;99.90;;;;;;5139859;27;20280;-83
2022/08/27 08:06:12;;;;;;;8.82;8.60;;;20.40;99.90;;;;;;5140008;27;20212;-82
2022/08/27 08:08:41;;;;;;;9.18;8.88;;;20.50;99.90;;;;;;5143733;27;20223;-84
2022/08/27 08:11:09;;;;;;;8.82;8.60;;;20.60;99.90;;;;;;5143043;27;20225;-83
2022/08/27 08:13:40;;;;;;;9.00;8.70;;;20.70;99.90;;;;;;5140588;28;20236;-83
2022/08/27 08:16:08;;;;;;;9.00;8.70;;;20.70;99.90;;;;;;5141421;27;20217;-83
2022/08/27 08:18:38;;;;;;;9.18;8.88;;;20.70;99.90;;;;;;5143952;27;20281;-82
2022/08/27 08:21:09;;;;;;;8.90;8.60;;;20.80;99.90;;;;;;5143948;27;20216;-84
2022/08/27 08:23:37;;;;;;;8.70;8.50;;;20.90;99.90;;;;;;5143700;27;20228;-83
2022/08/27 08:26:06;;;;;;;9.38;9.07;;;20.90;99.90;;;;;;5143128;27;20224;-84
2022/08/27 08:28:34;;;;;;;9.50;9.20;;;20.90;99.90;;;;;;5143193;27;20219;-83
2022/08/27 08:31:13;;;;;;;9.20;8.90;;;21.00;99.90;;;;;;5143764;27;20216;-83
2022/08/27 08:33:45;;;;;;;8.90;8.60;;;20.90;99.90;;;;;;5143461;27;20232;-83
2022/08/27 08:36:16;;;;;;;9.10;8.80;;;21.00;99.90;;;;;;5141326;27;20220;-83
2022/08/27 08:38:46;;;;;;;9.05;8.75;;;20.90;99.90;;;;;;5141531;28;20213;-83
2022/08/27 08:41:39;;;;;;;8.93;8.63;;;21.00;99.90;;;;;;5140178;27;20240;-83
2022/08/27 08:44:17;;;;;;;9.02;8.73;;;20.90;99.90;;;;;;5125609;27;20228;-83
2022/08/27 08:46:55;;;;;;;8.90;8.60;;;21.00;99.90;;;;;;5124886;28;20263;-83
2022/08/27 08:49:45;;;;;;;9.20;8.90;;;21.00;99.90;;;;;;5137817;27;20232;-83
2022/08/27 08:55:26;;;;;;;8.93;8.63;;;21.10;99.90;;;;;;5116168;22;20240;-83
2022/08/27 08:58:14;;;;;;;8.80;8.50;;;21.10;99.90;;;;;;5108319;28;21155;-83
2022/08/27 09:00:44;;;;;;;8.77;8.50;;;21.20;99.90;;;;;;5107190;28;20269;-83
2022/08/27 09:03:20;;;;;;;9.07;8.77;;;21.30;99.90;;;;;;5106798;28;20240;-84
2022/08/27 09:05:59;;;;;;;9.10;8.80;;;21.40;99.90;;;;;;5105997;28;20294;-83
2022/08/27 09:08:37;;;;;;;9.20;8.90;;;21.60;99.90;;;;;;5105339;28;20312;-85
2022/08/27 09:11:14;;;;;;;9.13;8.82;;;21.70;99.90;;;;;;5105489;28;20229;-84
2022/08/27 09:13:52;;;;;;;9.27;8.98;;;21.80;99.90;;;;;;5109789;28;20237;-84
2022/08/27 09:16:22;;;;;;;9.30;9.00;;;21.90;99.90;;;;;;5108510;28;20269;-84
2022/08/27 09:19:03;;;;;;;9.57;9.27;;;22.00;99.90;;;;;;5107724;28;20217;-84
2022/08/27 09:21:48;;;;;;;9.20;8.90;;;22.20;99.90;;;;;;5107016;28;20259;-84
2022/08/27 09:24:25;;;;;;;9.20;8.90;;;22.30;99.90;;;;;;5106508;28;20260;-84
2022/08/27 09:26:54;;;;;;;9.05;8.75;;;22.30;99.90;;;;;;5106088;28;20237;-84
2022/08/27 09:29:29;;;;;;;9.57;9.27;;;22.50;99.90;;;;;;5105057;28;20246;-84
2022/08/27 09:32:04;;;;;;;9.48;9.18;;;22.20;99.90;;;;;;5105343;28;20258;-85
2022/08/27 09:34:40;;;;;;;9.60;9.30;;;22.40;99.90;;;;;;5104600;28;20224;-85
2022/08/27 09:37:14;;;;;;;9.25;8.95;;;22.50;99.90;;;;;;5104684;28;20237;-84
2022/08/27 09:39:48;;;;;;;9.40;9.10;;;22.60;99.90;;;;;;5112008;28;20216;-84
2022/08/27 09:42:35;;;;;;;9.85;9.55;;;22.50;99.90;;;;;;5113125;28;20229;-83
2022/08/27 09:45:07;;;;;;;9.40;9.10;;;22.50;99.90;;;;;;5106217;28;20297;-84
2022/08/27 09:47:45;;;;;;;9.57;9.27;;;22.40;99.90;;;;;;5106241;28;20284;-85
2022/08/27 09:50:22;;;;;;;9.40;9.10;;;22.50;99.90;;;;;;5105284;28;20233;-83
2022/08/27 09:55:47;;;;;;;9.90;9.60;;;21.90;99.90;;;;;;5102757;28;20287;-83
2022/08/27 09:58:25;;;;;;;9.77;9.48;;;21.90;99.90;;;;;;5103792;28;20229;-83
2022/08/27 10:01:03;;;;;;;9.90;9.60;;;21.90;99.90;;;;;;5103275;28;20263;-83
2022/08/27 10:03:33;;;;;;;9.95;9.65;;;22.20;99.90;;;;;;5103360;28;20316;-83
2022/08/27 10:06:05;;;;;;;9.70;9.40;;;22.40;99.90;;;;;;5111544;28;20221;-83
2022/08/27 10:08:41;;;;;;;9.63;9.32;;;22.20;99.90;;;;;;5106822;28;20241;-83
2022/08/27 10:11:19;;;;;;;9.80;9.50;;;22.20;99.90;;;;;;5106945;28;20217;-83
2022/08/27 10:13:57;;;;;;;9.63;9.32;;;22.40;99.90;;;;;;5105381;28;20233;-81
2022/08/27 10:17:01;;;;;;;9.70;9.40;;;22.60;99.90;;;;;;5104896;28;20317;-84
2022/08/27 10:19:48;;;;;;;9.38;9.07;;;22.70;99.90;;;;;;5104555;28;20232;-83
2022/08/27 10:22:36;;;;;;;9.60;9.30;;;22.70;99.90;;;;;;5105483;28;20264;-84
2022/08/27 10:25:34;;;;;;;9.60;9.30;;;22.70;99.90;;;;;;5103399;28;20214;-84
2022/08/27 10:28:18;;;;;;;9.50;9.20;;;22.80;99.90;;;;;;5103661;28;20332;-83
2022/08/27 10:31:08;;;;;;;9.50;9.20;;;22.90;99.90;;;;;;5103687;28;20260;-84
2022/08/27 10:33:48;;;;;;;9.60;9.30;;;22.70;99.90;;;;;;5103923;28;20237;-85
2022/08/27 10:36:33;;;;;;;9.90;9.60;;;23.00;99.90;;;;;;5103124;28;20233;-84
2022/08/27 10:39:19;;;;;;;9.70;9.40;;;23.20;99.90;;;;;;5104296;28;20272;-84
2022/08/27 10:41:58;;;;;;;9.80;9.50;;;23.30;99.90;;;;;;5103135;28;20320;-84
2022/08/27 10:44:53;;;;;;;10.15;9.85;;;23.50;99.90;;;;;;5103172;28;20361;-85
2022/08/27 10:47:40;;;;;;;9.95;9.65;;;23.60;99.90;;;;;;5104132;28;20226;-85
2022/08/27 10:50:18;;;;;;;10.02;9.73;;;23.80;99.90;;;;;;5103615;28;20233;-83
2022/08/27 10:55:44;;;;;;;10.10;9.80;;;24.20;99.90;;;;;;5097643;28;20264;-84
2022/08/27 10:58:31;;;;;;;10.15;9.85;;;24.30;99.90;;;;;;5102032;28;20213;-84
2022/08/27 11:01:10;;;;;;;10.20;9.90;;;24.40;99.90;;;;;;5103056;28;20226;-83
2022/08/27 11:03:48;;;;;;;10.20;9.90;;;24.50;99.90;;;;;;5102394;28;20249;-83
2022/08/27 11:06:25;;;;;;;10.20;9.90;;;24.40;99.90;;;;;;5102978;28;20291;-84
2022/08/27 11:08:58;;;;;;;10.40;10.10;;;24.30;99.90;;;;;;5116887;27;20328;-84
2022/08/27 11:11:50;;;;;;;10.10;9.80;;;24.50;99.90;;;;;;5117433;27;20245;-84
2022/08/27 11:14:29;;;;;;;10.18;9.88;;;24.80;99.90;;;;;;5105990;28;20289;-84
2022/08/27 11:17:07;;;;;;;10.20;9.90;;;25.10;99.90;;;;;;5105566;28;20287;-84
2022/08/27 11:19:48;;;;;;;10.30;10.00;;;25.30;99.90;;;;;;5103605;28;20217;-84
2022/08/27 11:22:24;;;;;;;10.60;10.30;;;25.80;99.90;;;;;;5104369;28;20234;-83
2022/08/27 11:25:02;;;;;;;10.60;10.30;;;26.20;99.90;;;;;;5107676;28;20256;-84
2022/08/27 11:27:34;;;;;;;10.50;10.20;;;26.80;99.90;;;;;;5104887;28;20246;-84
2022/08/27 11:30:10;;;;;;;10.40;10.10;;;26.90;99.90;;;;;;5102873;28;20312;-83
2022/08/27 11:35:54;;;;;;;10.43;10.13;;;27.20;99.90;;;;;;5101691;28;20237;-83
2022/08/27 11:38:48;;;;;;;10.30;10.00;;;27.30;99.90;;;;;;5102734;28;20237;-84
2022/08/27 11:41:52;;;;;;;10.18;9.88;;;27.40;99.90;;;;;;5112905;28;20230;-84
2022/08/27 11:44:31;;;;;;;10.27;9.98;;;26.90;99.90;;;;;;5104773;28;20239;-83
2022/08/27 11:47:12;;;;;;;10.35;10.05;;;26.20;99.90;;;;;;5104803;28;20225;-84
2022/08/27 11:49:47;;;;;;;10.60;10.30;;;26.40;99.90;;;;;;5103768;28;20239;-85
2022/08/27 11:52:28;;;;;;;10.20;9.90;;;26.70;99.90;;;;;;5103953;28;20261;-84
2022/08/27 11:55:14;;;;;;;10.35;10.05;;;26.90;99.90;;;;;;5103643;28;20304;-84
2022/08/27 11:57:43;;;;;;;10.70;10.40;;;26.90;99.90;;;;;;5103161;28;20233;-83
2022/08/27 12:00:21;;;;;;;10.40;10.10;;;27.10;99.90;;;;;;5104113;28;20229;-83
2022/08/27 12:03:13;;;;;;;10.15;9.85;;;26.80;99.90;;;;;;5102911;28;20224;-84
2022/08/27 12:05:47;;;;;;;10.32;10.02;;;26.60;99.90;;;;;;5102733;28;20268;-84
2022/08/27 12:08:27;;;;;;;10.85;10.55;;;27.00;99.90;;;;;;5103771;28;20245;-83
2022/08/27 12:11:14;;;;;;;10.65;10.35;;;27.30;99.90;;;;;;5103655;28;20553;-83
2022/08/27 12:13:59;;;;;;;10.50;10.20;;;27.60;99.90;;;;;;5111891;27;20206;-84
2022/08/27 12:16:45;;;;;;;10.63;10.32;;;28.00;99.90;;;;;;5107781;28;20237;-84
2022/08/27 12:19:33;;;;;;;10.80;10.50;;;28.30;99.90;;;;;;5102619;28;20237;-84
2022/08/27 12:23:38;;;;;;;11.07;10.77;;;28.70;99.90;;;;;;5102077;28;20316;-85
2022/08/27 12:25:25;;;;;;;10.52;10.23;;;29.00;99.90;;;;;;5099591;28;20226;-83
2022/08/27 12:28:02;;;;;;;10.65;10.35;;;28.40;99.90;;;;;;5101703;28;20230;-83
2022/08/27 12:33:30;;;;;;;10.90;10.60;;;28.80;99.90;;;;;;5103326;28;20316;-84
2022/08/27 12:36:07;;;;;;;10.88;10.57;;;29.10;99.90;;;;;;5108304;28;20234;-84
2022/08/27 12:38:46;;;;;;;10.52;10.23;;;29.20;99.90;;;;;;5107843;28;20237;-82
2022/08/27 12:41:27;;;;;;;9.90;9.60;;;28.80;99.90;;;;;;5104115;28;20320;-83
2022/08/27 12:46:50;;;;;;;10.50;10.20;;;28.20;99.90;;;;;;5102750;28;20224;-83
2022/08/27 12:49:28;;;;;;;10.35;10.05;;;27.50;99.90;;;;;;5102166;28;20213;-83
2022/08/27 12:51:58;;;;;;;10.70;10.40;;;27.50;99.90;;;;;;5102474;28;20256;-83
2022/08/27 12:54:45;;;;;;;10.68;10.38;;;28.00;99.90;;;;;;5103593;28;20289;-83
2022/08/27 12:57:24;;;;;;;10.60;10.30;;;28.10;99.90;;;;;;5105394;28;20265;-82
2022/08/27 13:00:11;;;;;;;10.38;10.07;;;28.10;99.90;;;;;;5104663;28;21127;-83
2022/08/27 13:03:24;;;;;;;10.30;10.00;;;27.90;99.90;;;;;;5104387;28;20232;-83
2022/08/27 13:05:56;;;;;;;10.50;10.20;;;27.50;99.90;;;;;;5103566;28;20245;-84
2022/08/27 13:08:30;;;;;;;10.00;9.70;;;27.10;99.90;;;;;;5104534;28;20230;-82
2022/08/27 13:11:09;;;;;;;10.13;9.82;;;26.80;99.90;;;;;;5103823;28;20307;-84
2022/08/27 13:13:38;;;;;;;10.20;9.90;;;26.50;99.90;;;;;;5103863;28;20232;-83
2022/08/27 13:16:07;;;;;;;10.32;10.02;;;26.20;99.90;;;;;;5103255;28;20226;-83
2022/08/27 13:18:38;;;;;;;10.00;9.70;;;26.00;99.90;;;;;;5104026;28;20285;-84
2022/08/27 13:21:16;;;;;;;10.15;9.85;;;25.80;99.90;;;;;;5103000;28;20257;-82
2022/08/27 13:24:01;;;;;;;10.20;9.90;;;25.60;99.90;;;;;;5103732;28;20289;-83
2022/08/27 13:26:32;;;;;;;10.35;10.05;;;25.70;99.90;;;;;;5103324;28;20759;-83
2022/08/27 13:29:01;;;;;;;9.77;9.48;;;25.60;99.90;;;;;;5102458;28;21028;-83
2022/08/27 13:31:30;;;;;;;9.98;9.68;;;25.90;99.90;;;;;;5103405;28;20229;-83
2022/08/27 13:33:59;;;;;;;10.10;9.80;;;25.80;99.90;;;;;;5102899;28;20245;-83
2022/08/27 13:36:37;;;;;;;9.95;9.65;;;25.90;99.90;;;;;;5102957;28;20321;-83
2022/08/27 13:39:07;;;;;;;10.30;10.00;;;26.10;99.90;;;;;;5102615;28;20294;-83
2022/08/27 13:41:47;;;;;;;10.38;10.07;;;26.20;99.90;;;;;;5112420;28;20226;-83
2022/08/27 13:44:25;;;;;;;10.70;10.40;;;26.80;99.90;;;;;;5106398;28;20237;-83
2022/08/27 13:47:01;;;;;;;10.93;10.63;;;27.60;99.90;;;;;;5104779;28;20241;-84
2022/08/27 13:49:33;;;;;;;10.75;10.45;;;28.60;99.90;;;;;;5104017;28;20273;-83
2022/08/27 13:52:18;;;;;;;10.75;10.45;;;29.00;99.90;;;;;;5103851;28;20232;-84
2022/08/27 13:54:47;;;;;;;11.10;10.80;;;28.80;99.90;;;;;;5102684;28;20308;-84
2022/08/27 13:57:25;;;;;;;11.23;10.93;;;29.20;99.90;;;;;;5104105;28;20225;-83
2022/08/27 13:59:55;;;;;;;11.18;10.88;;;29.70;99.90;;;;;;5103208;28;20407;-83
2022/08/27 14:02:27;;;;;;;11.00;10.70;;;30.00;99.90;;;;;;5102954;28;20324;-83
2022/08/27 14:05:12;;;;;;;10.80;10.50;;;30.10;99.90;;;;;;5102377;28;20233;-83
2022/08/27 14:07:50;;;;;;;10.63;10.32;;;29.60;99.90;;;;;;5102926;28;20225;-83
2022/08/27 14:10:37;;;;;;;10.68;10.38;;;28.40;99.90;;;;;;5102663;28;20221;-83
2022/08/27 14:13:08;;;;;;;10.80;10.50;;;27.50;99.90;;;;;;5102369;28;20253;-83
2022/08/27 14:15:46;;;;;;;10.80;10.50;;;27.10;99.90;;;;;;5102336;28;20257;-84
2022/08/27 14:18:24;;;;;;;11.07;10.77;;;26.80;99.90;;;;;;5102269;28;20316;-83
2022/08/27 14:20:52;;;;;;;10.95;10.65;;;26.80;99.90;;;;;;5102300;28;20248;-83
2022/08/27 14:23:24;;;;;;;11.02;10.73;;;27.20;99.90;;;;;;5102103;28;20324;-84
2022/08/27 14:25:55;;;;;;;11.02;10.73;;;27.50;99.90;;;;;;5101823;28;20253;-83
2022/08/27 14:28:22;;;;;;;11.25;10.95;;;27.90;99.90;;;;;;5101983;28;20234;-83
2022/08/27 14:30:50;;;;;;;11.18;10.88;;;28.10;99.90;;;;;;5119999;27;20220;-83
2022/08/27 14:33:20;;;;;;;11.00;10.70;;;28.30;99.90;;;;;;5116840;27;20238;-83
2022/08/27 14:35:52;;;;;;;11.13;10.82;;;28.10;99.90;;;;;;5105380;28;20279;-83
2022/08/27 14:38:33;;;;;;;11.18;10.88;;;28.30;99.90;;;;;;5104770;28;20236;-83
2022/08/27 14:41:01;;;;;;;11.20;10.90;;;28.30;99.90;;;;;;5103643;28;20232;-83
2022/08/27 14:43:28;;;;;;;11.50;11.10;;;28.60;99.90;;;;;;5102996;28;20247;-83
2022/08/27 14:45:57;;;;;;;11.02;10.73;;;28.70;99.90;;;;;;5102177;28;20249;-83
2022/08/27 14:48:31;;;;;;;11.35;11.05;;;28.50;99.90;;;;;;5101808;28;20241;-82
2022/08/27 14:53:45;;;;;;;11.15;10.85;;;28.60;99.90;;;;;;5098023;28;20233;-83
2022/08/27 14:56:12;;;;;;;11.30;11.00;;;28.80;99.90;;;;;;5100739;28;20324;-83
2022/08/27 14:58:43;;;;;;;11.10;10.80;;;28.60;99.90;;;;;;5101876;28;20229;-82
2022/08/27 15:01:12;;;;;;;10.77;10.48;;;28.20;99.90;;;;;;5101631;28;20255;-82
2022/08/27 15:03:49;;;;;;;10.57;10.27;;;28.00;99.90;;;;;;5101198;28;20320;-83
2022/08/27 15:06:18;;;;;;;10.52;10.23;;;28.00;99.90;;;;;;5101198;28;20225;-82
2022/08/27 15:08:47;;;;;;;10.40;10.10;;;27.60;99.90;;;;;;5100963;28;20324;-82
2022/08/27 15:11:19;;;;;;;10.00;9.70;;;26.90;99.90;;;;;;5101352;28;20225;-81
2022/08/27 15:13:47;;;;;;;10.30;10.00;;;26.50;99.90;;;;;;5102438;28;20316;-81